Time;durP1;ratioP1;P1;durP2;ratioP2;P2;SDS_P1;SDS_P2;PMS_P1;PMS_P2;Temp;Humidity;BMP_temperature;BMP_pressure;BME280_temperature;BME280_humidity;BME280_pressure;Samples;Min_cycle;Max_cycle;Signal;HPM_P1;HPM_P2
2021/06/29 00:01:07;;;;;;;15.60;11.00;;;;;;;19.19;100.00;97493.22;4956226;28;20125;-84
2021/06/29 00:03:34;;;;;;;21.88;11.57;;;;;;;19.15;100.00;97486.88;4972560;28;20045;-83
2021/06/29 00:06:01;;;;;;;13.27;10.73;;;;;;;19.22;100.00;97497.16;4940359;28;20066;-83
2021/06/29 00:08:29;;;;;;;16.85;10.80;;;;;;;19.21;100.00;97501.06;4955985;28;20471;-83
2021/06/29 00:11:16;;;;;;;19.60;10.65;;;;;;;19.17;100.00;97492.00;4958808;28;20043;-84
2021/06/29 00:13:44;;;;;;;15.30;11.00;;;;;;;19.07;100.00;97493.44;4939140;28;20073;-83
2021/06/29 00:16:11;;;;;;;15.85;10.80;;;;;;;19.04;100.00;97498.91;4963612;28;20031;-85
2021/06/29 00:18:38;;;;;;;14.05;10.48;;;;;;;19.05;100.00;97484.00;4960254;28;20045;-84
2021/06/29 00:21:05;;;;;;;20.25;10.95;;;;;;;19.02;100.00;97490.25;4973892;28;20309;-84
2021/06/29 00:23:38;;;;;;;16.35;10.38;;;;;;;19.01;100.00;97502.38;4954606;28;20054;-84
2021/06/29 00:26:07;;;;;;;15.15;10.18;;;;;;;19.01;100.00;97505.13;4955159;28;20043;-84
2021/06/29 00:28:35;;;;;;;18.50;10.90;;;;;;;18.88;100.00;97515.53;4939387;28;20070;-84
2021/06/29 00:31:02;;;;;;;23.17;11.23;;;;;;;18.83;100.00;97518.63;4955898;28;20038;-84
2021/06/29 00:33:29;;;;;;;16.92;10.13;;;;;;;18.80;100.00;97510.31;4971694;28;20054;-84
2021/06/29 00:35:59;;;;;;;17.40;10.90;;;;;;;18.69;100.00;97518.41;4940909;28;20055;-84
2021/06/29 00:38:29;;;;;;;19.80;11.75;;;;;;;18.67;100.00;97520.72;4956127;28;20038;-83
2021/06/29 00:40:58;;;;;;;13.23;10.68;;;;;;;18.79;100.00;97522.47;4972992;28;20066;-84
2021/06/29 00:43:29;;;;;;;21.35;12.15;;;;;;;18.85;100.00;97519.03;4940082;28;20279;-84
2021/06/29 00:45:56;;;;;;;14.70;11.75;;;;;;;18.92;100.00;97518.31;4940656;28;20051;-84
2021/06/29 00:48:28;;;;;;;20.85;12.40;;;;;;;18.97;100.00;97507.03;4958121;28;20039;-83
2021/06/29 00:50:58;;;;;;;16.98;11.23;;;;;;;18.98;100.00;97498.44;4957826;28;20039;-84
2021/06/29 00:53:24;;;;;;;13.82;11.00;;;;;;;19.05;100.00;97495.78;4960816;28;20494;-85
2021/06/29 00:55:53;;;;;;;17.35;10.95;;;;;;;19.04;100.00;97483.22;4941368;28;20046;-85
2021/06/29 00:58:22;;;;;;;16.50;11.10;;;;;;;19.11;100.00;97479.78;4941266;28;20050;-84
2021/06/29 01:00:52;;;;;;;15.48;10.68;;;;;;;19.08;100.00;97475.03;4957077;28;20043;-85
2021/06/29 01:03:18;;;;;;;17.17;10.20;;;;;;;19.04;100.00;97485.19;4955248;28;20061;-83
2021/06/29 01:05:45;;;;;;;13.20;10.10;;;;;;;19.00;100.00;97481.59;4941124;28;20046;-83
2021/06/29 01:08:13;;;;;;;22.58;11.05;;;;;;;19.03;100.00;97464.38;4943714;28;20066;-84
2021/06/29 01:10:42;;;;;;;13.90;10.70;;;;;;;19.03;100.00;97467.13;4939366;28;20039;-84
2021/06/29 01:13:09;;;;;;;15.48;11.15;;;;;;;18.94;100.00;97480.34;4954799;28;20042;-85
2021/06/29 01:15:37;;;;;;;15.57;11.40;;;;;;;18.93;100.00;97493.28;4939175;28;20144;-84
2021/06/29 01:18:11;;;;;;;16.83;11.10;;;;;;;18.91;100.00;97494.81;4972518;28;20463;-83
2021/06/29 01:20:41;;;;;;;19.60;11.35;;;;;;;18.90;100.00;97498.69;4954411;28;20239;-84
2021/06/29 01:23:10;;;;;;;18.65;11.52;;;;;;;18.89;100.00;97499.88;4954380;28;20057;-85
2021/06/29 01:26:03;;;;;;;20.38;11.13;;;;;;;18.78;100.00;97498.94;4956650;28;20042;-84
2021/06/29 01:28:33;;;;;;;23.65;10.65;;;;;;;18.62;100.00;97494.44;4956812;28;20154;-84
2021/06/29 01:31:08;;;;;;;17.17;10.68;;;;;;;18.68;100.00;97508.63;4953333;28;20415;-85
2021/06/29 01:33:35;;;;;;;19.73;10.52;;;;;;;18.72;100.00;97528.63;4970461;28;20050;-84
2021/06/29 01:36:02;;;;;;;17.75;10.27;;;;;;;18.66;100.00;97517.19;4969281;28;20113;-83
2021/06/29 01:38:29;;;;;;;16.30;10.25;;;;;;;18.85;100.00;97542.91;4969232;28;20066;-84
2021/06/29 01:40:56;;;;;;;15.05;10.65;;;;;;;18.80;100.00;97554.22;4954434;28;20058;-85
2021/06/29 01:43:30;;;;;;;17.88;11.05;;;;;;;18.78;100.00;97553.78;4960049;28;20106;-85
2021/06/29 01:45:57;;;;;;;13.63;10.07;;;;;;;19.22;100.00;97560.28;4976644;28;20050;-86
2021/06/29 01:48:27;;;;;;;14.07;9.60;;;;;;;19.96;100.00;97557.59;4960072;28;20062;-86
2021/06/29 01:50:56;;;;;;;13.13;9.30;;;;;;;20.17;100.00;97549.56;4976383;28;20117;-87
2021/06/29 01:53:23;;;;;;;15.48;9.93;;;;;;;20.31;100.00;97553.25;4975556;28;20062;-88
2021/06/29 01:55:51;;;;;;;16.45;8.80;;;;;;;20.41;100.00;97549.03;4975621;28;20129;-86
2021/06/29 01:58:24;;;;;;;11.85;8.73;;;;;;;20.54;100.00;97555.00;4957891;28;20051;-82
2021/06/29 02:00:52;;;;;;;10.30;7.97;;;;;;;20.68;100.00;97544.09;4957153;28;20046;-84
2021/06/29 02:03:21;;;;;;;11.85;8.18;;;;;;;20.87;100.00;97550.13;4956204;28;20495;-85
2021/06/29 02:05:50;;;;;;;11.18;8.40;;;;;;;20.91;100.00;97564.69;4955907;28;20063;-84
2021/06/29 02:08:17;;;;;;;10.10;8.35;;;;;;;20.88;100.00;97562.72;4978270;28;20051;-85
2021/06/29 02:10:45;;;;;;;9.68;7.82;;;;;;;20.80;100.00;97555.56;4953960;28;20046;-83
2021/06/29 02:13:11;;;;;;;11.02;8.27;;;;;;;20.77;100.00;97550.88;4954628;28;20047;-82
2021/06/29 02:15:38;;;;;;;9.57;7.97;;;;;;;20.73;100.00;97550.03;4970833;28;20093;-81
2021/06/29 02:18:05;;;;;;;11.68;8.23;;;;;;;20.67;100.00;97542.53;4970998;28;20065;-84
2021/06/29 02:20:31;;;;;;;13.45;8.27;;;;;;;20.67;100.00;97542.53;4972195;28;20371;-84
2021/06/29 02:22:58;;;;;;;10.15;8.43;;;;;;;20.67;100.00;97548.03;4972790;28;20047;-85
2021/06/29 02:25:25;;;;;;;9.50;8.50;;;;;;;20.65;100.00;97542.13;4939431;28;20243;-83
2021/06/29 02:27:54;;;;;;;9.32;7.25;;;;;;;20.56;100.00;97544.41;4955083;28;20051;-82
2021/06/29 02:30:21;;;;;;;9.77;6.43;;;;;;;20.54;100.00;97531.06;4972526;28;20054;-83
2021/06/29 02:32:48;;;;;;;12.88;7.22;;;;;;;20.49;100.00;97537.69;4956123;28;20047;-83
2021/06/29 02:35:16;;;;;;;10.60;6.80;;;;;;;20.44;100.00;97540.03;4972889;28;20542;-82
2021/06/29 02:37:44;;;;;;;8.45;7.07;;;;;;;20.40;100.00;97542.72;4955605;28;20039;-83
2021/06/29 02:40:14;;;;;;;9.63;6.55;;;;;;;20.38;100.00;97536.03;4955568;28;20051;-82
2021/06/29 02:42:40;;;;;;;11.23;6.90;;;;;;;20.30;100.00;97521.44;4942329;28;20042;-88
2021/06/29 02:45:08;;;;;;;8.15;6.43;;;;;;;20.38;100.00;97542.34;4965365;28;20046;-84
2021/06/29 02:47:37;;;;;;;10.40;7.20;;;;;;;20.30;100.00;97526.16;4960814;28;20141;-85
2021/06/29 02:50:07;;;;;;;12.93;6.97;;;;;;;20.24;100.00;97530.41;4944049;28;20098;-83
2021/06/29 02:52:35;;;;;;;14.10;7.22;;;;;;;20.20;100.00;97526.81;4974843;28;20468;-85
2021/06/29 02:55:05;;;;;;;10.90;7.07;;;;;;;20.23;100.00;97528.81;4961881;28;20055;-85
2021/06/29 02:57:33;;;;;;;9.98;7.03;;;;;;;20.16;100.00;97534.22;4943516;28;20514;-85
2021/06/29 02:59:59;;;;;;;9.25;7.07;;;;;;;20.11;100.00;97537.34;4970435;28;20049;-90
2021/06/29 03:02:26;;;;;;;13.65;6.60;;;;;;;20.08;100.00;97544.38;4979512;28;20042;-85
2021/06/29 03:04:53;;;;;;;11.15;6.88;;;;;;;20.09;100.00;97545.19;4957925;28;20434;-84
2021/06/29 03:07:19;;;;;;;9.40;7.10;;;;;;;20.05;100.00;97544.38;4955859;28;20061;-85
2021/06/29 03:09:48;;;;;;;9.00;7.10;;;;;;;20.02;100.00;97537.66;4955433;28;20440;-84
2021/06/29 03:12:15;;;;;;;9.60;6.75;;;;;;;20.04;100.00;97534.53;4956374;28;20126;-85
2021/06/29 03:14:41;;;;;;;12.38;6.25;;;;;;;19.98;100.00;97528.59;4951446;28;20042;-85
2021/06/29 03:17:08;;;;;;;7.47;5.85;;;;;;;20.00;100.00;97526.28;4958566;28;20047;-87
2021/06/29 03:19:36;;;;;;;10.05;5.38;;;;;;;19.98;100.00;97527.78;4946784;28;20180;-84
2021/06/29 03:22:04;;;;;;;11.52;5.35;;;;;;;19.98;100.00;97534.06;4975211;28;20077;-87
2021/06/29 03:24:31;;;;;;;9.63;5.50;;;;;;;19.91;100.00;97534.03;4959164;28;20125;-87
2021/06/29 03:26:58;;;;;;;7.75;5.10;;;;;;;19.89;100.00;97533.63;4949446;28;20077;-84
2021/06/29 03:29:25;;;;;;;8.85;4.90;;;;;;;19.86;100.00;97535.16;4970588;28;20047;-86
2021/06/29 03:31:52;;;;;;;7.03;5.20;;;;;;;19.82;100.00;97539.03;4968938;28;20042;-86
2021/06/29 03:34:24;;;;;;;8.65;4.75;;;;;;;19.75;100.00;97544.44;4973327;28;20149;-86
2021/06/29 03:36:50;;;;;;;9.80;5.60;;;;;;;19.65;100.00;97539.63;4976323;28;20399;-88
2021/06/29 03:39:18;;;;;;;12.20;5.80;;;;;;;19.46;100.00;97540.59;4996921;28;20066;-85
2021/06/29 03:41:50;;;;;;;8.95;5.63;;;;;;;19.56;100.00;97550.13;4981955;28;20101;-86
2021/06/29 03:44:17;;;;;;;10.18;5.20;;;;;;;19.40;100.00;97533.88;4972302;28;20054;-84
2021/06/29 03:46:45;;;;;;;10.13;5.35;;;;;;;19.40;100.00;97535.81;4955103;28;20050;-86
2021/06/29 03:49:11;;;;;;;8.65;5.20;;;;;;;19.25;100.00;97543.06;4970332;28;20074;-85
2021/06/29 03:51:38;;;;;;;6.78;5.15;;;;;;;19.30;100.00;97554.50;4981329;28;20108;-85
2021/06/29 03:54:06;;;;;;;8.20;5.07;;;;;;;19.34;100.00;97562.00;4968416;28;20057;-87
2021/06/29 03:56:33;;;;;;;8.57;4.25;;;;;;;19.25;100.00;97548.56;4975952;28;20050;-85
2021/06/29 03:59:07;;;;;;;5.07;3.65;;;;;;;19.10;100.00;97536.59;4964308;28;20050;-86
2021/06/29 04:01:38;;;;;;;6.18;3.90;;;;;;;19.11;100.00;97551.13;4980893;28;20038;-78
2021/06/29 04:04:05;;;;;;;5.22;3.75;;;;;;;19.05;100.00;97558.88;4994708;28;20054;-80
2021/06/29 04:06:37;;;;;;;5.50;3.40;;;;;;;18.99;100.00;97551.34;4994394;28;20486;-80
2021/06/29 04:09:08;;;;;;;5.80;3.17;;;;;;;19.07;100.00;97547.56;4977697;28;20098;-80
2021/06/29 04:11:36;;;;;;;6.03;3.05;;;;;;;19.03;100.00;97552.97;4993132;28;20060;-80
2021/06/29 04:14:03;;;;;;;12.07;3.40;;;;;;;19.01;100.00;97568.22;4992879;28;20046;-81
2021/06/29 04:16:30;;;;;;;6.55;3.58;;;;;;;18.93;100.00;97572.84;4993246;28;20225;-83
2021/06/29 04:18:57;;;;;;;4.53;3.35;;;;;;;18.91;100.00;97571.63;4991973;28;20053;-82
2021/06/29 04:21:23;;;;;;;6.68;3.22;;;;;;;18.80;100.00;97563.25;4991695;28;20091;-83
2021/06/29 04:23:50;;;;;;;5.35;3.03;;;;;;;18.80;100.00;97555.00;4995911;28;20545;-83
2021/06/29 04:26:17;;;;;;;5.03;3.40;;;;;;;18.83;100.00;97551.53;4996160;28;20422;-84
2021/06/29 04:28:46;;;;;;;6.85;3.75;;;;;;;18.82;100.00;97558.16;4993403;28;20050;-83
2021/06/29 04:31:12;;;;;;;3.75;3.03;;;;;;;18.90;100.00;97567.28;4992257;28;20130;-83
2021/06/29 04:33:39;;;;;;;8.13;3.50;;;;;;;18.87;100.00;97560.59;4985201;28;20191;-84
2021/06/29 04:36:06;;;;;;;7.97;3.60;;;;;;;18.80;100.00;97548.72;4977222;28;20097;-83
2021/06/29 04:38:33;;;;;;;8.30;3.83;;;;;;;18.65;100.00;97559.50;4993909;28;20065;-83
2021/06/29 04:41:00;;;;;;;7.35;3.50;;;;;;;18.69;100.00;97562.28;4994571;28;20072;-83
2021/06/29 04:43:27;;;;;;;7.68;3.45;;;;;;;18.75;100.00;97549.84;4989395;28;20044;-84
2021/06/29 04:45:54;;;;;;;7.00;3.45;;;;;;;18.74;100.00;97544.75;4961160;28;20047;-82
2021/06/29 04:48:20;;;;;;;6.72;3.70;;;;;;;18.82;100.00;97554.63;4972420;28;20049;-82
2021/06/29 04:50:47;;;;;;;5.53;3.67;;;;;;;18.76;100.00;97554.19;4972881;28;20523;-82
2021/06/29 04:53:14;;;;;;;6.40;3.60;;;;;;;18.76;100.00;97545.16;4972224;28;20093;-83
2021/06/29 04:55:40;;;;;;;5.20;3.85;;;;;;;18.79;100.00;97552.66;4976983;28;20073;-82
2021/06/29 04:58:08;;;;;;;5.88;3.85;;;;;;;18.83;100.00;97540.56;4967461;28;20137;-81
2021/06/29 05:00:34;;;;;;;6.50;3.70;;;;;;;18.92;100.00;97537.53;4995639;28;20046;-84
2021/06/29 05:03:04;;;;;;;9.13;3.85;;;;;;;18.98;100.00;97533.31;4976542;28;20034;-82
2021/06/29 05:05:31;;;;;;;5.38;3.60;;;;;;;19.00;100.00;97528.22;4992858;28;20613;-84
2021/06/29 05:07:58;;;;;;;6.95;3.78;;;;;;;19.01;100.00;97533.38;4975598;28;20046;-84
2021/06/29 05:10:24;;;;;;;11.98;4.07;;;;;;;19.20;100.00;97529.69;4977043;28;20153;-83
2021/06/29 05:12:51;;;;;;;7.53;3.38;;;;;;;19.30;100.00;97518.03;5001482;28;20113;-83
2021/06/29 05:15:18;;;;;;;8.95;3.85;;;;;;;19.22;100.00;97521.88;4958794;28;20047;-84
2021/06/29 05:17:45;;;;;;;5.38;3.83;;;;;;;19.14;100.00;97526.47;4973469;28;20050;-82
2021/06/29 05:20:14;;;;;;;7.10;3.50;;;;;;;19.15;100.00;97522.56;4955637;28;20454;-83
2021/06/29 05:22:41;;;;;;;12.50;3.72;;;;;;;19.29;100.00;97521.94;4974040;28;20486;-84
2021/06/29 05:25:10;;;;;;;6.35;3.00;;;;;;;19.25;100.00;97504.66;4972168;28;20058;-84
2021/06/29 05:27:39;;;;;;;7.65;3.13;;;;;;;19.20;100.00;97505.75;4965827;28;20059;-85
2021/06/29 05:30:08;;;;;;;7.75;3.63;;;;;;;19.40;100.00;97503.69;4976057;28;20117;-86
2021/06/29 05:32:36;;;;;;;9.70;3.80;;;;;;;19.47;100.00;97511.19;4993291;28;20057;-85
2021/06/29 05:35:03;;;;;;;7.28;3.60;;;;;;;19.49;100.00;97506.91;4959163;28;20065;-85
2021/06/29 05:37:30;;;;;;;6.63;3.63;;;;;;;19.55;100.00;97496.38;4991818;28;20077;-85
2021/06/29 05:39:57;;;;;;;9.50;3.97;;;;;;;19.41;100.00;97507.22;4975911;28;20098;-85
2021/06/29 05:42:24;;;;;;;11.07;3.83;;;;;;;19.48;100.00;97505.34;4957850;28;20053;-85
2021/06/29 05:44:51;;;;;;;7.45;3.78;;;;;;;19.49;100.00;97498.66;4940544;28;20051;-84
2021/06/29 05:47:22;;;;;;;7.97;3.15;;;;;;;19.65;100.00;97501.19;4956239;28;20128;-84
2021/06/29 05:49:49;;;;;;;7.00;3.20;;;;;;;19.68;100.00;97501.22;4958332;28;20053;-85
2021/06/29 05:52:17;;;;;;;3.53;2.53;;;;;;;19.65;100.00;97495.69;4961978;28;20119;-84
2021/06/29 05:54:46;;;;;;;7.60;2.83;;;;;;;19.69;100.00;97508.28;4975187;28;20531;-84
2021/06/29 05:57:14;;;;;;;5.50;2.90;;;;;;;19.72;100.00;97493.81;4947368;28;20051;-84
2021/06/29 05:59:42;;;;;;;5.60;2.90;;;;;;;19.72;100.00;97495.75;4975870;28;20046;-83
2021/06/29 06:02:10;;;;;;;5.97;3.15;;;;;;;19.65;100.00;97499.22;4958078;28;20045;-84
2021/06/29 06:04:37;;;;;;;7.70;3.10;;;;;;;19.62;100.00;97499.97;4974546;28;20066;-84
2021/06/29 06:07:04;;;;;;;5.93;3.35;;;;;;;19.74;100.00;97502.44;4960039;28;20054;-83
2021/06/29 06:09:32;;;;;;;7.75;4.38;;;;;;;19.81;100.00;97507.22;4974851;28;20047;-83
2021/06/29 06:11:58;;;;;;;8.98;5.03;;;;;;;19.79;100.00;97498.59;4973696;28;20058;-84
2021/06/29 06:14:26;;;;;;;8.93;6.32;;;;;;;19.76;100.00;97521.31;4956846;28;20050;-81
2021/06/29 06:16:53;;;;;;;11.05;6.25;;;;;;;19.67;100.00;97516.13;4974520;28;20576;-82
2021/06/29 06:19:19;;;;;;;13.65;5.97;;;;;;;19.77;100.00;97515.44;4957626;28;20051;-83
2021/06/29 06:21:46;;;;;;;8.25;5.78;;;;;;;19.89;100.00;97522.63;4958300;28;20104;-82
2021/06/29 06:24:13;;;;;;;10.35;5.78;;;;;;;19.86;100.00;97520.63;4975352;28;20050;-82
2021/06/29 06:26:40;;;;;;;6.50;5.60;;;;;;;19.97;100.00;97515.22;4957426;28;20525;-84
2021/06/29 06:29:07;;;;;;;9.23;5.43;;;;;;;19.97;100.00;97521.53;4956672;28;20055;-82
2021/06/29 06:31:34;;;;;;;8.32;4.43;;;;;;;20.15;100.00;97521.69;4956321;28;20079;-83
2021/06/29 06:34:02;;;;;;;6.60;3.75;;;;;;;20.13;100.00;97515.78;4956366;28;20066;-85
2021/06/29 06:36:28;;;;;;;6.47;3.00;;;;;;;20.26;100.00;97519.84;4956895;28;20054;-83
2021/06/29 06:38:56;;;;;;;3.83;2.95;;;;;;;20.28;100.00;97507.28;4972767;28;20051;-83
2021/06/29 06:41:23;;;;;;;3.50;2.63;;;;;;;20.30;100.00;97507.69;4956058;28;20090;-82
2021/06/29 06:43:50;;;;;;;5.55;2.60;;;;;;;20.40;100.00;97506.97;4940025;28;20186;-84
2021/06/29 06:46:17;;;;;;;5.70;2.55;;;;;;;20.24;100.00;97514.72;4959140;28;20141;-83
2021/06/29 06:48:44;;;;;;;6.13;2.95;;;;;;;20.26;100.00;97508.84;4956226;28;20082;-85
2021/06/29 06:51:12;;;;;;;6.18;3.33;;;;;;;20.23;100.00;97507.66;4940236;28;20426;-84
2021/06/29 06:53:39;;;;;;;4.28;3.28;;;;;;;20.13;100.00;97507.53;4956049;28;20046;-84
2021/06/29 06:56:06;;;;;;;7.25;3.80;;;;;;;20.05;100.00;97512.19;4955710;28;20128;-83
2021/06/29 06:58:32;;;;;;;8.07;3.70;;;;;;;20.08;100.00;97514.16;4940546;28;20147;-84
2021/06/29 07:01:00;;;;;;;5.32;3.35;;;;;;;20.13;100.00;97513.78;4956628;28;20146;-82
2021/06/29 07:03:38;;;;;;;6.28;3.90;;;;;;;20.21;100.00;97515.44;4945944;28;20521;-82
2021/06/29 07:06:23;;;;;;;9.93;3.70;;;;;;;20.34;100.00;97514.00;4963075;28;20077;-80
2021/06/29 07:08:50;;;;;;;7.65;3.42;;;;;;;20.51;100.00;97509.81;4976893;28;20253;-82
2021/06/29 07:11:17;;;;;;;5.90;3.67;;;;;;;20.49;100.00;97506.66;4959544;28;20047;-83
2021/06/29 07:13:43;;;;;;;7.53;3.40;;;;;;;20.52;100.00;97511.38;4959277;28;20043;-83
2021/06/29 07:16:10;;;;;;;6.15;3.50;;;;;;;20.52;100.00;97508.63;4959323;28;20383;-83
2021/06/29 07:18:37;;;;;;;4.90;3.10;;;;;;;20.69;100.00;97513.47;4959519;28;20426;-83
2021/06/29 07:21:04;;;;;;;5.93;2.92;;;;;;;20.70;100.00;97512.28;4960695;28;20057;-84
2021/06/29 07:23:31;;;;;;;7.82;2.92;;;;;;;20.72;100.00;97520.16;4976310;28;20056;-83
2021/06/29 07:26:00;;;;;;;3.80;2.83;;;;;;;20.92;100.00;97511.25;4959254;28;20034;-83
2021/06/29 07:28:28;;;;;;;3.80;2.67;;;;;;;20.99;100.00;97496.72;4942416;28;20518;-83
2021/06/29 07:30:55;;;;;;;5.50;2.60;;;;;;;21.45;100.00;97489.44;4964057;28;20617;-85
2021/06/29 07:33:22;;;;;;;5.40;2.47;;;;;;;21.49;100.00;97492.22;4960145;28;20074;-85
2021/06/29 07:35:49;;;;;;;8.00;2.53;;;;;;;21.67;100.00;97488.34;4959490;28;20097;-84
2021/06/29 07:38:16;;;;;;;4.13;2.40;;;;;;;21.70;100.00;97500.53;4959186;28;20050;-84
2021/06/29 07:40:42;;;;;;;4.55;2.65;;;;;;;21.62;100.00;97502.50;4975739;28;20518;-84
2021/06/29 07:43:09;;;;;;;4.95;2.38;;;;;;;21.94;100.00;97504.56;4975590;28;20406;-84
2021/06/29 07:45:38;;;;;;;6.13;2.38;;;;;;;21.91;100.00;97499.81;4970015;28;20047;-84
2021/06/29 07:48:06;;;;;;;2.60;2.15;;;;;;;22.27;100.00;97502.19;4957118;28;20154;-83
2021/06/29 07:50:33;;;;;;;3.13;1.90;;;;;;;22.41;100.00;97497.84;4974670;28;20054;-83
2021/06/29 07:53:02;;;;;;;2.75;1.80;;;;;;;22.42;100.00;97489.19;4941320;28;20495;-83
2021/06/29 07:55:30;;;;;;;3.90;1.75;;;;;;;22.66;100.00;97496.66;4951422;28;20041;-86
2021/06/29 07:58:01;;;;;;;3.00;1.63;;;;;;;22.74;100.00;97489.94;4985876;28;20146;-84
2021/06/29 08:00:30;;;;;;;6.60;1.75;;;;;;;22.63;100.00;97482.88;4958663;28;20097;-84
2021/06/29 08:02:58;;;;;;;10.55;1.80;;;;;;;22.16;100.00;97493.13;4959735;28;20047;-86
2021/06/29 08:05:25;;;;;;;2.03;1.73;;;;;;;22.60;100.00;97489.94;4958948;28;20043;-83
2021/06/29 08:07:53;;;;;;;2.40;1.60;;;;;;;22.71;100.00;97481.69;4943321;28;20065;-84
2021/06/29 08:10:20;;;;;;;1.85;1.48;;;;;;;22.69;100.00;97471.03;4943914;28;20043;-84
2021/06/29 08:12:48;;;;;;;1.95;1.30;;;;;;;22.57;100.00;97476.16;4943829;28;20043;-84
2021/06/29 08:15:15;;;;;;;3.30;1.30;;;;;;;22.86;100.00;97486.75;4957671;28;20039;-84
2021/06/29 08:17:45;;;;;;;2.53;1.20;;;;;;;22.97;100.00;97489.47;4946302;28;20058;-85
2021/06/29 08:20:16;;;;;;;2.80;1.15;;;;;;;23.09;100.00;97480.75;4943826;28;20146;-84
2021/06/29 08:22:51;;;;;;;1.83;1.40;;;;;;;23.20;100.00;97487.00;4980865;28;20038;-85
2021/06/29 08:25:20;;;;;;;3.85;1.55;;;;;;;23.21;100.00;97499.66;4964741;28;20057;-84
2021/06/29 08:27:47;;;;;;;2.85;2.05;;;;;;;23.12;100.00;97491.03;4965095;28;20050;-84
2021/06/29 08:30:15;;;;;;;2.80;1.85;;;;;;;23.81;100.00;97482.00;4960914;28;20118;-85
2021/06/29 08:32:42;;;;;;;2.58;1.77;;;;;;;23.58;100.00;97490.81;4964010;28;20039;-82
2021/06/29 08:35:10;;;;;;;2.25;1.95;;;;;;;23.51;100.00;97482.59;4962664;28;20047;-85
2021/06/29 08:37:42;;;;;;;3.55;2.13;;;;;;;23.32;100.00;97477.50;4961753;28;20046;-83
2021/06/29 08:40:10;;;;;;;2.75;1.90;;;;;;;23.27;100.00;97472.41;4962449;28;20082;-84
2021/06/29 08:42:38;;;;;;;4.82;1.58;;;;;;;23.37;100.00;97477.91;4962713;28;20078;-84
2021/06/29 08:45:13;;;;;;;2.03;1.52;;;;;;;23.09;100.00;97474.44;4961133;28;20414;-85
2021/06/29 08:47:41;;;;;;;2.88;1.75;;;;;;;23.12;100.00;97463.41;4946093;28;20391;-84
2021/06/29 08:50:13;;;;;;;2.45;1.90;;;;;;;23.36;100.00;97456.16;4958159;28;20042;-84
2021/06/29 08:52:41;;;;;;;2.63;1.92;;;;;;;23.62;100.00;97449.31;4975294;28;20070;-83
2021/06/29 08:55:11;;;;;;;2.60;1.90;;;;;;;23.84;100.00;97456.28;4986886;28;20050;-85
2021/06/29 08:57:38;;;;;;;5.03;1.92;;;;;;;23.75;100.00;97450.41;4980209;28;20113;-83
2021/06/29 09:00:08;;;;;;;2.00;1.60;;;;;;;23.90;100.00;97458.22;4955825;28;20097;-84
2021/06/29 09:02:38;;;;;;;1.58;1.42;;;;;;;24.05;100.00;97443.06;4955930;28;20051;-82
2021/06/29 09:05:19;;;;;;;2.60;1.60;;;;;;;24.61;100.00;97452.88;4956295;28;20058;-84
2021/06/29 09:08:18;;;;;;;2.88;1.30;;;;;;;24.55;100.00;97457.28;4980154;28;20051;-84
2021/06/29 09:11:22;;;;;;;1.90;1.40;;;;;;;24.23;100.00;97451.28;4978196;28;20038;-83
2021/06/29 09:14:02;;;;;;;4.03;1.42;;;;;;;24.15;100.00;97453.31;4964548;28;20109;-84
2021/06/29 09:16:29;;;;;;;2.38;1.50;;;;;;;24.09;100.00;97446.66;4957851;28;20046;-83
2021/06/29 09:18:55;;;;;;;6.30;1.77;;;;;;;23.98;100.00;97425.75;4959140;28;20046;-83
2021/06/29 09:21:24;;;;;;;3.20;1.73;;;;;;;23.80;100.00;97433.41;4957665;28;20054;-84
2021/06/29 09:23:51;;;;;;;5.22;1.70;;;;;;;23.78;100.00;97444.09;4939660;28;20050;-83
2021/06/29 09:26:23;;;;;;;7.57;1.60;;;;;;;23.97;100.00;97440.78;4956446;28;20057;-83
2021/06/29 09:28:55;;;;;;;6.70;1.70;;;;;;;24.21;100.00;97428.75;4957947;28;20046;-84
2021/06/29 09:31:26;;;;;;;5.38;1.90;;;;;;;24.36;100.00;97437.72;4965182;28;20057;-84
2021/06/29 09:33:59;;;;;;;7.93;2.20;;;;;;;24.43;100.00;97434.88;4957109;28;20039;-85
2021/06/29 09:36:30;;;;;;;10.30;2.00;;;;;;;24.39;100.00;97432.13;4957602;28;20053;-84
2021/06/29 09:39:08;;;;;;;7.85;2.05;;;;;;;24.94;100.00;97436.72;4957729;28;20129;-82
2021/06/29 09:42:00;;;;;;;8.27;1.92;;;;;;;25.02;100.00;97414.06;4954377;28;20035;-85
2021/06/29 09:44:35;;;;;;;3.55;1.77;;;;;;;25.63;100.00;97437.00;4975677;28;20050;-84
2021/06/29 09:51:14;;;;;;;4.50;1.70;;;;;;;25.85;100.00;97421.59;4913367;29;20063;-84
2021/06/29 09:53:52;;;;;;;2.63;1.50;;;;;;;26.55;100.00;97416.84;4944859;28;20039;-83
2021/06/29 09:56:23;;;;;;;2.45;1.50;;;;;;;26.66;100.00;97411.06;4969735;28;20051;-83
2021/06/29 09:58:57;;;;;;;2.90;1.60;;;;;;;26.79;100.00;97412.03;4953092;28;20062;-83
2021/06/29 10:01:51;;;;;;;7.13;1.60;;;;;;;27.89;100.00;97418.00;4969279;28;20061;-83
2021/06/29 10:04:43;;;;;;;4.60;1.33;;;;;;;28.83;100.00;97422.38;4969360;28;20546;-82
2021/06/29 10:07:17;;;;;;;4.22;1.70;;;;;;;28.75;100.00;97401.50;4963451;28;20058;-83
2021/06/29 10:09:44;;;;;;;2.95;1.65;;;;;;;29.06;100.00;97412.97;4963051;28;20056;-84
2021/06/29 10:12:24;;;;;;;5.57;1.50;;;;;;;28.03;100.00;97395.44;4962052;28;20047;-85
2021/06/29 10:15:38;;;;;;;4.70;1.60;;;;;;;28.56;100.00;97380.09;4956481;28;20141;-82
2021/06/29 10:18:06;;;;;;;5.13;1.50;;;;;;;28.89;100.00;97390.72;4976174;28;20061;-83
2021/06/29 10:23:16;;;;;;;2.78;1.60;;;;;;;30.88;100.00;97387.88;4977203;28;20271;-82
2021/06/29 10:25:44;;;;;;;7.68;1.80;;;;;;;31.92;80.04;97375.88;4956910;28;20051;-83
2021/06/29 10:28:13;;;;;;;4.03;1.90;;;;;;;30.88;71.42;97380.28;4978969;28;20050;-84
2021/06/29 10:31:01;;;;;;;1.83;1.50;;;;;;;30.28;93.81;97365.63;4982401;28;20105;-83
2021/06/29 10:33:31;;;;;;;4.00;1.75;;;;;;;29.13;100.00;97349.41;4955068;28;20041;-84
2021/06/29 10:36:01;;;;;;;4.47;1.70;;;;;;;31.69;84.12;97335.19;4959144;28;20522;-83
2021/06/29 10:38:36;;;;;;;2.47;1.98;;;;;;;33.00;65.22;97338.72;4964684;28;20042;-81
2021/06/29 10:41:03;;;;;;;2.03;1.77;;;;;;;32.27;65.08;97325.97;4983667;28;20043;-84
2021/06/29 10:43:34;;;;;;;5.43;1.75;;;;;;;30.89;84.50;97333.53;4978252;28;20113;-82
2021/06/29 10:46:23;;;;;;;5.25;1.73;;;;;;;29.93;100.00;97330.56;4979273;28;20047;-86
2021/06/29 10:48:51;;;;;;;2.97;1.88;;;;;;;28.63;100.00;97343.72;4964413;28;20054;-83
2021/06/29 10:51:35;;;;;;;2.17;1.88;;;;;;;27.76;100.00;97362.25;4961483;28;20419;-82
2021/06/29 10:54:40;;;;;;;5.55;1.90;;;;;;;26.99;100.00;97370.38;4961154;28;20047;-84
2021/06/29 10:57:22;;;;;;;2.92;2.00;;;;;;;27.14;100.00;97352.97;4966317;28;20066;-83
2021/06/29 10:59:52;;;;;;;5.63;2.00;;;;;;;28.13;100.00;97342.25;4953255;28;20055;-84
2021/06/29 11:02:28;;;;;;;6.28;1.92;;;;;;;29.45;100.00;97357.56;4967553;28;20113;-84
2021/06/29 11:05:10;;;;;;;3.33;1.90;;;;;;;31.45;89.74;97350.97;4975402;28;20042;-83
2021/06/29 11:07:40;;;;;;;3.53;1.80;;;;;;;33.53;66.74;97321.38;4959374;28;20039;-85
2021/06/29 11:10:10;;;;;;;3.03;1.60;;;;;;;33.21;58.96;97328.56;4974144;28;20067;-83
2021/06/29 11:12:46;;;;;;;2.75;1.52;;;;;;;32.97;65.49;97322.81;4974320;28;20496;-83
2021/06/29 11:15:17;;;;;;;5.85;1.77;;;;;;;32.22;66.82;97321.00;4975155;28;20122;-81
2021/06/29 11:17:47;;;;;;;2.08;1.67;;;;;;;31.03;89.04;97327.41;4976180;28;20047;-81
2021/06/29 11:20:18;;;;;;;4.03;1.70;;;;;;;30.05;100.00;97329.72;4977447;28;20047;-82
2021/06/29 11:23:02;;;;;;;6.47;2.30;;;;;;;29.11;100.00;97309.25;4978172;28;20049;-81
2021/06/29 11:25:53;;;;;;;3.60;1.90;;;;;;;28.58;100.00;97313.56;4959817;28;20118;-84
2021/06/29 11:28:44;;;;;;;3.90;1.80;;;;;;;29.10;100.00;97311.25;4958620;28;20054;-84
2021/06/29 11:31:24;;;;;;;4.35;2.00;;;;;;;28.96;100.00;97309.66;4973792;28;20062;-83
2021/06/29 11:34:03;;;;;;;3.05;2.20;;;;;;;29.46;100.00;97299.78;4957447;28;20125;-82
2021/06/29 11:36:31;;;;;;;4.45;2.30;;;;;;;30.22;100.00;97315.13;4943764;28;20051;-83
2021/06/29 11:39:23;;;;;;;2.40;2.20;;;;;;;30.00;100.00;97305.16;4963383;28;20058;-83
2021/06/29 11:42:05;;;;;;;7.70;2.25;;;;;;;30.08;100.00;97300.91;4967022;28;20046;-82